sensor_id;sensor_type;location;lat;lon;timestamp;temperature;humidity
82851;DHT22;72609;45.768;4.884;2024-01-11T00:00:24;3.20;89.40
82851;DHT22;72609;45.768;4.884;2024-01-11T00:02:50;3.20;89.90
82851;DHT22;72609;45.768;4.884;2024-01-11T00:05:16;3.20;89.50
82851;DHT22;72609;45.768;4.884;2024-01-11T00:07:41;3.20;89.70
82851;DHT22;72609;45.768;4.884;2024-01-11T00:10:07;3.20;89.80
82851;DHT22;72609;45.768;4.884;2024-01-11T00:12:33;3.20;89.90
82851;DHT22;72609;45.768;4.884;2024-01-11T00:14:58;3.20;89.70
82851;DHT22;72609;45.768;4.884;2024-01-11T00:17:24;3.30;89.60
82851;DHT22;72609;45.768;4.884;2024-01-11T00:19:50;3.30;89.20
82851;DHT22;72609;45.768;4.884;2024-01-11T00:22:16;3.30;89.30
82851;DHT22;72609;45.768;4.884;2024-01-11T00:24:42;3.30;89.50
82851;DHT22;72609;45.768;4.884;2024-01-11T00:27:08;3.30;89.80
82851;DHT22;72609;45.768;4.884;2024-01-11T00:29:35;3.30;89.40
82851;DHT22;72609;45.768;4.884;2024-01-11T00:32:01;3.30;89.60
82851;DHT22;72609;45.768;4.884;2024-01-11T00:34:27;3.30;89.80
82851;DHT22;72609;45.768;4.884;2024-01-11T00:36:52;3.20;90.00
82851;DHT22;72609;45.768;4.884;2024-01-11T00:39:18;3.30;89.70
82851;DHT22;72609;45.768;4.884;2024-01-11T00:41:43;3.30;89.80
82851;DHT22;72609;45.768;4.884;2024-01-11T00:44:09;3.30;90.10
82851;DHT22;72609;45.768;4.884;2024-01-11T00:46:35;3.30;90.00
82851;DHT22;72609;45.768;4.884;2024-01-11T00:49:00;3.30;90.10
82851;DHT22;72609;45.768;4.884;2024-01-11T00:51:26;3.30;90.00
82851;DHT22;72609;45.768;4.884;2024-01-11T00:53:52;3.30;90.00
82851;DHT22;72609;45.768;4.884;2024-01-11T00:56:18;3.30;89.80
82851;DHT22;72609;45.768;4.884;2024-01-11T00:58:44;3.30;89.60
82851;DHT22;72609;45.768;4.884;2024-01-11T01:01:10;3.20;90.00
82851;DHT22;72609;45.768;4.884;2024-01-11T01:03:36;3.30;89.80
82851;DHT22;72609;45.768;4.884;2024-01-11T01:06:02;3.20;89.90
82851;DHT22;72609;45.768;4.884;2024-01-11T01:08:28;3.20;89.90
82851;DHT22;72609;45.768;4.884;2024-01-11T01:10:53;3.20;89.80
82851;DHT22;72609;45.768;4.884;2024-01-11T01:13:19;3.00;90.50
82851;DHT22;72609;45.768;4.884;2024-01-11T01:15:45;3.00;90.50
82851;DHT22;72609;45.768;4.884;2024-01-11T01:18:10;2.80;91.00
82851;DHT22;72609;45.768;4.884;2024-01-11T01:20:36;2.90;90.90
82851;DHT22;72609;45.768;4.884;2024-01-11T01:23:02;3.00;90.80
82851;DHT22;72609;45.768;4.884;2024-01-11T01:25:27;2.80;91.10
82851;DHT22;72609;45.768;4.884;2024-01-11T01:27:53;2.70;91.00
82851;DHT22;72609;45.768;4.884;2024-01-11T01:30:20;2.80;91.10
82851;DHT22;72609;45.768;4.884;2024-01-11T01:32:46;2.90;91.00
82851;DHT22;72609;45.768;4.884;2024-01-11T01:35:11;2.90;90.80
82851;DHT22;72609;45.768;4.884;2024-01-11T01:37:37;3.00;90.80
82851;DHT22;72609;45.768;4.884;2024-01-11T01:40:03;3.00;90.50
82851;DHT22;72609;45.768;4.884;2024-01-11T01:42:28;3.00;90.60
82851;DHT22;72609;45.768;4.884;2024-01-11T01:44:54;2.90;90.70
82851;DHT22;72609;45.768;4.884;2024-01-11T01:47:20;3.00;90.80
82851;DHT22;72609;45.768;4.884;2024-01-11T01:49:45;3.00;90.80
82851;DHT22;72609;45.768;4.884;2024-01-11T01:52:13;3.10;90.70
82851;DHT22;72609;45.768;4.884;2024-01-11T01:54:39;3.10;90.60
82851;DHT22;72609;45.768;4.884;2024-01-11T01:57:06;3.10;90.50
82851;DHT22;72609;45.768;4.884;2024-01-11T01:59:33;3.20;90.50
82851;DHT22;72609;45.768;4.884;2024-01-11T02:01:59;3.00;90.50
82851;DHT22;72609;45.768;4.884;2024-01-11T02:04:25;3.10;90.60
82851;DHT22;72609;45.768;4.884;2024-01-11T02:06:53;3.10;90.90
82851;DHT22;72609;45.768;4.884;2024-01-11T02:09:19;3.00;90.70
82851;DHT22;72609;45.768;4.884;2024-01-11T02:11:46;3.00;90.90
82851;DHT22;72609;45.768;4.884;2024-01-11T02:14:12;2.90;91.10
82851;DHT22;72609;45.768;4.884;2024-01-11T02:16:37;3.00;91.00
82851;DHT22;72609;45.768;4.884;2024-01-11T02:19:05;3.00;90.80
82851;DHT22;72609;45.768;4.884;2024-01-11T02:21:33;3.10;90.70
82851;DHT22;72609;45.768;4.884;2024-01-11T02:24:06;3.00;90.70
82851;DHT22;72609;45.768;4.884;2024-01-11T02:26:33;3.10;90.60
82851;DHT22;72609;45.768;4.884;2024-01-11T02:28:59;3.10;90.60
82851;DHT22;72609;45.768;4.884;2024-01-11T02:31:24;3.10;90.40
82851;DHT22;72609;45.768;4.884;2024-01-11T02:33:52;3.20;90.60
82851;DHT22;72609;45.768;4.884;2024-01-11T02:36:20;3.20;90.50
82851;DHT22;72609;45.768;4.884;2024-01-11T02:38:46;3.10;90.40
82851;DHT22;72609;45.768;4.884;2024-01-11T02:41:15;3.10;90.40
82851;DHT22;72609;45.768;4.884;2024-01-11T02:43:45;3.10;90.40
82851;DHT22;72609;45.768;4.884;2024-01-11T02:46:11;3.20;90.40
82851;DHT22;72609;45.768;4.884;2024-01-11T02:48:37;3.20;90.30
82851;DHT22;72609;45.768;4.884;2024-01-11T02:51:03;3.20;90.30
82851;DHT22;72609;45.768;4.884;2024-01-11T02:53:29;3.20;90.00
82851;DHT22;72609;45.768;4.884;2024-01-11T02:56:00;3.00;90.00
82851;DHT22;72609;45.768;4.884;2024-01-11T02:58:25;3.10;90.50
82851;DHT22;72609;45.768;4.884;2024-01-11T03:00:51;3.10;90.30
82851;DHT22;72609;45.768;4.884;2024-01-11T03:03:16;3.10;90.00
82851;DHT22;72609;45.768;4.884;2024-01-11T03:05:42;3.10;89.80
82851;DHT22;72609;45.768;4.884;2024-01-11T03:08:08;3.10;89.90
82851;DHT22;72609;45.768;4.884;2024-01-11T03:10:33;3.10;89.60
82851;DHT22;72609;45.768;4.884;2024-01-11T03:12:59;3.00;89.90
82851;DHT22;72609;45.768;4.884;2024-01-11T03:15:25;3.00;90.20
82851;DHT22;72609;45.768;4.884;2024-01-11T03:17:50;3.10;90.20
82851;DHT22;72609;45.768;4.884;2024-01-11T03:20:16;3.10;89.70
82851;DHT22;72609;45.768;4.884;2024-01-11T03:22:46;3.10;89.80
82851;DHT22;72609;45.768;4.884;2024-01-11T03:25:12;3.10;90.10
82851;DHT22;72609;45.768;4.884;2024-01-11T03:27:37;3.10;90.10
82851;DHT22;72609;45.768;4.884;2024-01-11T03:30:03;3.10;90.10
82851;DHT22;72609;45.768;4.884;2024-01-11T03:32:29;3.00;90.10
82851;DHT22;72609;45.768;4.884;2024-01-11T03:34:55;3.00;90.10
82851;DHT22;72609;45.768;4.884;2024-01-11T03:37:21;3.00;90.30
82851;DHT22;72609;45.768;4.884;2024-01-11T03:39:46;3.10;90.10
82851;DHT22;72609;45.768;4.884;2024-01-11T03:42:12;3.10;90.00
82851;DHT22;72609;45.768;4.884;2024-01-11T03:44:38;3.10;90.00
82851;DHT22;72609;45.768;4.884;2024-01-11T03:47:04;3.10;89.80
82851;DHT22;72609;45.768;4.884;2024-01-11T03:49:29;3.10;89.70
82851;DHT22;72609;45.768;4.884;2024-01-11T03:51:55;3.20;89.70
82851;DHT22;72609;45.768;4.884;2024-01-11T03:54:20;3.20;89.70
82851;DHT22;72609;45.768;4.884;2024-01-11T03:56:46;3.20;89.30
82851;DHT22;72609;45.768;4.884;2024-01-11T03:59:12;3.20;89.20
82851;DHT22;72609;45.768;4.884;2024-01-11T04:01:41;3.10;89.40
82851;DHT22;72609;45.768;4.884;2024-01-11T04:04:07;3.10;89.60
82851;DHT22;72609;45.768;4.884;2024-01-11T04:06:33;3.10;90.00
82851;DHT22;72609;45.768;4.884;2024-01-11T04:08:59;3.00;90.10
82851;DHT22;72609;45.768;4.884;2024-01-11T04:11:27;3.00;90.10
82851;DHT22;72609;45.768;4.884;2024-01-11T04:13:53;3.00;90.10
82851;DHT22;72609;45.768;4.884;2024-01-11T04:16:20;3.00;90.30
82851;DHT22;72609;45.768;4.884;2024-01-11T04:18:45;3.00;90.30
82851;DHT22;72609;45.768;4.884;2024-01-11T04:21:25;3.00;90.40
82851;DHT22;72609;45.768;4.884;2024-01-11T04:23:54;2.90;90.40
82851;DHT22;72609;45.768;4.884;2024-01-11T04:26:20;2.80;90.50
82851;DHT22;72609;45.768;4.884;2024-01-11T04:28:46;2.80;90.60
82851;DHT22;72609;45.768;4.884;2024-01-11T04:31:13;2.80;91.00
82851;DHT22;72609;45.768;4.884;2024-01-11T04:33:40;2.80;91.00
82851;DHT22;72609;45.768;4.884;2024-01-11T04:36:05;2.80;91.10
82851;DHT22;72609;45.768;4.884;2024-01-11T04:38:31;2.90;91.00
82851;DHT22;72609;45.768;4.884;2024-01-11T04:40:57;2.90;90.70
82851;DHT22;72609;45.768;4.884;2024-01-11T04:43:22;3.00;90.70
82851;DHT22;72609;45.768;4.884;2024-01-11T04:45:48;2.90;90.60
82851;DHT22;72609;45.768;4.884;2024-01-11T04:48:13;2.90;90.60
82851;DHT22;72609;45.768;4.884;2024-01-11T04:50:39;2.90;90.60
82851;DHT22;72609;45.768;4.884;2024-01-11T04:53:05;2.80;90.60
82851;DHT22;72609;45.768;4.884;2024-01-11T04:55:30;2.80;90.80
82851;DHT22;72609;45.768;4.884;2024-01-11T04:57:56;2.80;90.80
82851;DHT22;72609;45.768;4.884;2024-01-11T05:00:21;2.70;91.00
82851;DHT22;72609;45.768;4.884;2024-01-11T05:02:47;2.80;90.90
82851;DHT22;72609;45.768;4.884;2024-01-11T05:05:12;2.90;90.70
82851;DHT22;72609;45.768;4.884;2024-01-11T05:07:38;2.90;90.10
82851;DHT22;72609;45.768;4.884;2024-01-11T05:10:04;2.80;90.30
82851;DHT22;72609;45.768;4.884;2024-01-11T05:12:30;2.90;90.30
82851;DHT22;72609;45.768;4.884;2024-01-11T05:14:56;2.90;90.20
82851;DHT22;72609;45.768;4.884;2024-01-11T05:17:21;2.90;90.10
82851;DHT22;72609;45.768;4.884;2024-01-11T05:19:47;2.70;90.10
82851;DHT22;72609;45.768;4.884;2024-01-11T05:22:13;2.70;90.50
82851;DHT22;72609;45.768;4.884;2024-01-11T05:24:39;2.80;90.60
82851;DHT22;72609;45.768;4.884;2024-01-11T05:27:04;2.80;90.40
82851;DHT22;72609;45.768;4.884;2024-01-11T05:29:30;2.90;90.10
82851;DHT22;72609;45.768;4.884;2024-01-11T05:31:57;2.90;90.00
82851;DHT22;72609;45.768;4.884;2024-01-11T05:34:23;2.90;90.00
82851;DHT22;72609;45.768;4.884;2024-01-11T05:36:49;2.90;90.00
82851;DHT22;72609;45.768;4.884;2024-01-11T05:39:14;2.90;89.80
82851;DHT22;72609;45.768;4.884;2024-01-11T05:41:43;2.80;90.00
82851;DHT22;72609;45.768;4.884;2024-01-11T05:44:09;2.80;90.20
82851;DHT22;72609;45.768;4.884;2024-01-11T05:46:35;2.70;90.30
82851;DHT22;72609;45.768;4.884;2024-01-11T05:49:00;2.70;90.30
82851;DHT22;72609;45.768;4.884;2024-01-11T05:51:26;2.50;90.50
82851;DHT22;72609;45.768;4.884;2024-01-11T05:53:52;2.40;90.80
82851;DHT22;72609;45.768;4.884;2024-01-11T05:56:19;2.40;90.80
82851;DHT22;72609;45.768;4.884;2024-01-11T05:58:46;2.30;90.90
82851;DHT22;72609;45.768;4.884;2024-01-11T06:01:11;2.20;90.90
82851;DHT22;72609;45.768;4.884;2024-01-11T06:03:37;2.20;90.90
82851;DHT22;72609;45.768;4.884;2024-01-11T06:06:05;2.30;91.00
82851;DHT22;72609;45.768;4.884;2024-01-11T06:08:31;2.30;90.80
82851;DHT22;72609;45.768;4.884;2024-01-11T06:10:57;2.40;90.70
82851;DHT22;72609;45.768;4.884;2024-01-11T06:13:23;2.50;90.20
82851;DHT22;72609;45.768;4.884;2024-01-11T06:15:49;2.50;90.20
82851;DHT22;72609;45.768;4.884;2024-01-11T06:18:15;2.60;90.10
82851;DHT22;72609;45.768;4.884;2024-01-11T06:20:41;2.70;90.30
82851;DHT22;72609;45.768;4.884;2024-01-11T06:23:07;2.50;89.20
82851;DHT22;72609;45.768;4.884;2024-01-11T06:25:32;2.50;89.90
82851;DHT22;72609;45.768;4.884;2024-01-11T06:27:59;2.70;90.40
82851;DHT22;72609;45.768;4.884;2024-01-11T06:30:25;2.70;89.90
82851;DHT22;72609;45.768;4.884;2024-01-11T06:32:50;2.70;90.00
82851;DHT22;72609;45.768;4.884;2024-01-11T06:35:16;2.70;89.20
82851;DHT22;72609;45.768;4.884;2024-01-11T06:37:41;2.70;89.60
82851;DHT22;72609;45.768;4.884;2024-01-11T06:40:07;2.70;89.20
82851;DHT22;72609;45.768;4.884;2024-01-11T06:42:34;2.80;89.80
82851;DHT22;72609;45.768;4.884;2024-01-11T06:44:59;2.70;88.50
82851;DHT22;72609;45.768;4.884;2024-01-11T06:47:25;2.40;89.80
82851;DHT22;72609;45.768;4.884;2024-01-11T06:49:51;2.20;90.40
82851;DHT22;72609;45.768;4.884;2024-01-11T06:52:17;2.30;90.80
82851;DHT22;72609;45.768;4.884;2024-01-11T06:54:42;2.40;90.70
82851;DHT22;72609;45.768;4.884;2024-01-11T06:57:08;2.40;90.50
82851;DHT22;72609;45.768;4.884;2024-01-11T06:59:34;2.60;90.50
82851;DHT22;72609;45.768;4.884;2024-01-11T07:02:00;2.60;90.40
82851;DHT22;72609;45.768;4.884;2024-01-11T07:04:25;2.60;90.00
82851;DHT22;72609;45.768;4.884;2024-01-11T07:06:51;2.60;90.00
82851;DHT22;72609;45.768;4.884;2024-01-11T07:09:17;2.70;90.10
82851;DHT22;72609;45.768;4.884;2024-01-11T07:11:43;2.80;89.70
82851;DHT22;72609;45.768;4.884;2024-01-11T07:14:09;2.80;89.50
82851;DHT22;72609;45.768;4.884;2024-01-11T07:16:36;2.80;89.00
82851;DHT22;72609;45.768;4.884;2024-01-11T07:19:01;2.80;89.00
82851;DHT22;72609;45.768;4.884;2024-01-11T07:21:27;2.60;89.30
82851;DHT22;72609;45.768;4.884;2024-01-11T07:23:57;2.50;90.40
82851;DHT22;72609;45.768;4.884;2024-01-11T07:26:23;2.60;90.40
82851;DHT22;72609;45.768;4.884;2024-01-11T07:28:49;2.60;90.40
82851;DHT22;72609;45.768;4.884;2024-01-11T07:31:15;2.70;90.30
82851;DHT22;72609;45.768;4.884;2024-01-11T07:33:41;2.70;90.40
82851;DHT22;72609;45.768;4.884;2024-01-11T07:36:07;2.70;90.30
82851;DHT22;72609;45.768;4.884;2024-01-11T07:38:32;2.70;90.30
82851;DHT22;72609;45.768;4.884;2024-01-11T07:40:58;2.60;90.40
82851;DHT22;72609;45.768;4.884;2024-01-11T07:43:24;2.70;90.50
82851;DHT22;72609;45.768;4.884;2024-01-11T07:45:51;2.70;90.40
82851;DHT22;72609;45.768;4.884;2024-01-11T07:48:16;2.70;90.10
82851;DHT22;72609;45.768;4.884;2024-01-11T07:50:42;2.80;90.20
82851;DHT22;72609;45.768;4.884;2024-01-11T07:53:08;2.80;90.10
82851;DHT22;72609;45.768;4.884;2024-01-11T07:55:33;2.70;89.80
82851;DHT22;72609;45.768;4.884;2024-01-11T07:57:59;2.80;90.40
82851;DHT22;72609;45.768;4.884;2024-01-11T08:00:25;2.60;90.10
82851;DHT22;72609;45.768;4.884;2024-01-11T08:02:51;2.50;90.50
82851;DHT22;72609;45.768;4.884;2024-01-11T08:05:16;2.40;91.30
82851;DHT22;72609;45.768;4.884;2024-01-11T08:07:42;2.50;91.30
82851;DHT22;72609;45.768;4.884;2024-01-11T08:10:08;2.60;91.20
82851;DHT22;72609;45.768;4.884;2024-01-11T08:12:35;2.70;90.90
82851;DHT22;72609;45.768;4.884;2024-01-11T08:15:01;2.60;90.60
82851;DHT22;72609;45.768;4.884;2024-01-11T08:17:27;2.70;90.90
82851;DHT22;72609;45.768;4.884;2024-01-11T08:19:52;2.70;91.00
82851;DHT22;72609;45.768;4.884;2024-01-11T08:22:18;2.80;90.70
82851;DHT22;72609;45.768;4.884;2024-01-11T08:24:43;2.70;90.60
82851;DHT22;72609;45.768;4.884;2024-01-11T08:27:09;2.80;90.60
82851;DHT22;72609;45.768;4.884;2024-01-11T08:29:35;2.70;90.40
82851;DHT22;72609;45.768;4.884;2024-01-11T08:32:00;2.80;90.40
82851;DHT22;72609;45.768;4.884;2024-01-11T08:34:31;2.80;90.40
82851;DHT22;72609;45.768;4.884;2024-01-11T08:36:57;2.90;90.20
82851;DHT22;72609;45.768;4.884;2024-01-11T08:39:23;2.80;90.10
82851;DHT22;72609;45.768;4.884;2024-01-11T08:41:49;2.90;89.70
82851;DHT22;72609;45.768;4.884;2024-01-11T08:44:15;2.80;89.70
82851;DHT22;72609;45.768;4.884;2024-01-11T08:46:40;2.90;89.30
82851;DHT22;72609;45.768;4.884;2024-01-11T08:49:06;2.80;89.20
82851;DHT22;72609;45.768;4.884;2024-01-11T08:51:32;2.70;89.10
82851;DHT22;72609;45.768;4.884;2024-01-11T08:54:13;2.80;89.70
82851;DHT22;72609;45.768;4.884;2024-01-11T08:56:42;2.60;89.20
82851;DHT22;72609;45.768;4.884;2024-01-11T08:59:08;2.60;90.30
82851;DHT22;72609;45.768;4.884;2024-01-11T09:01:37;2.70;90.20
82851;DHT22;72609;45.768;4.884;2024-01-11T09:04:03;2.60;89.80
82851;DHT22;72609;45.768;4.884;2024-01-11T09:06:30;2.70;89.70
82851;DHT22;72609;45.768;4.884;2024-01-11T09:08:55;2.70;89.40
82851;DHT22;72609;45.768;4.884;2024-01-11T09:11:21;2.70;89.60
82851;DHT22;72609;45.768;4.884;2024-01-11T09:13:46;2.60;89.70
82851;DHT22;72609;45.768;4.884;2024-01-11T09:16:16;2.60;90.10
82851;DHT22;72609;45.768;4.884;2024-01-11T09:18:43;2.60;90.00
82851;DHT22;72609;45.768;4.884;2024-01-11T09:21:09;2.60;90.10
82851;DHT22;72609;45.768;4.884;2024-01-11T09:23:35;2.50;89.00
82851;DHT22;72609;45.768;4.884;2024-01-11T09:26:00;2.30;90.30
82851;DHT22;72609;45.768;4.884;2024-01-11T09:28:26;2.40;90.20
82851;DHT22;72609;45.768;4.884;2024-01-11T09:30:51;2.50;90.20
82851;DHT22;72609;45.768;4.884;2024-01-11T09:33:20;2.60;90.20
82851;DHT22;72609;45.768;4.884;2024-01-11T09:35:55;2.60;89.00
82851;DHT22;72609;45.768;4.884;2024-01-11T09:38:23;2.60;88.50
82851;DHT22;72609;45.768;4.884;2024-01-11T09:41:11;2.60;88.30
82851;DHT22;72609;45.768;4.884;2024-01-11T09:43:37;2.50;88.10
82851;DHT22;72609;45.768;4.884;2024-01-11T09:46:04;2.60;88.20
82851;DHT22;72609;45.768;4.884;2024-01-11T09:48:34;2.70;88.50
82851;DHT22;72609;45.768;4.884;2024-01-11T09:51:01;2.70;87.20
82851;DHT22;72609;45.768;4.884;2024-01-11T09:53:32;2.90;90.80
82851;DHT22;72609;45.768;4.884;2024-01-11T09:55:59;2.80;86.80
82851;DHT22;72609;45.768;4.884;2024-01-11T09:58:25;2.70;87.80
82851;DHT22;72609;45.768;4.884;2024-01-11T10:00:54;2.70;87.20
82851;DHT22;72609;45.768;4.884;2024-01-11T10:03:24;2.70;87.20
82851;DHT22;72609;45.768;4.884;2024-01-11T10:05:57;2.80;87.60
82851;DHT22;72609;45.768;4.884;2024-01-11T10:08:23;2.70;87.50
82851;DHT22;72609;45.768;4.884;2024-01-11T10:10:49;2.70;88.40
82851;DHT22;72609;45.768;4.884;2024-01-11T10:13:16;2.70;88.00
82851;DHT22;72609;45.768;4.884;2024-01-11T10:15:42;2.70;87.10
82851;DHT22;72609;45.768;4.884;2024-01-11T10:18:08;2.60;87.40
82851;DHT22;72609;45.768;4.884;2024-01-11T10:20:34;2.60;87.60
82851;DHT22;72609;45.768;4.884;2024-01-11T10:22:59;2.50;87.20
82851;DHT22;72609;45.768;4.884;2024-01-11T10:25:26;2.50;87.70
82851;DHT22;72609;45.768;4.884;2024-01-11T10:27:52;2.50;88.00
82851;DHT22;72609;45.768;4.884;2024-01-11T10:30:18;2.50;87.80
82851;DHT22;72609;45.768;4.884;2024-01-11T10:32:46;2.50;87.80
82851;DHT22;72609;45.768;4.884;2024-01-11T10:35:12;2.60;87.90
82851;DHT22;72609;45.768;4.884;2024-01-11T10:37:38;2.60;87.30
82851;DHT22;72609;45.768;4.884;2024-01-11T10:40:09;2.50;87.60
82851;DHT22;72609;45.768;4.884;2024-01-11T10:42:42;2.60;88.10
82851;DHT22;72609;45.768;4.884;2024-01-11T10:45:19;2.70;87.70
82851;DHT22;72609;45.768;4.884;2024-01-11T10:47:53;2.70;87.20
82851;DHT22;72609;45.768;4.884;2024-01-11T10:50:19;2.60;87.40
82851;DHT22;72609;45.768;4.884;2024-01-11T10:53:01;2.70;88.10
82851;DHT22;72609;45.768;4.884;2024-01-11T10:55:33;2.70;87.40
82851;DHT22;72609;45.768;4.884;2024-01-11T10:58:00;2.60;87.00
82851;DHT22;72609;45.768;4.884;2024-01-11T11:00:28;2.70;87.20
82851;DHT22;72609;45.768;4.884;2024-01-11T11:02:55;2.50;87.70
82851;DHT22;72609;45.768;4.884;2024-01-11T11:05:21;2.50;87.60
82851;DHT22;72609;45.768;4.884;2024-01-11T11:07:49;2.50;87.60
82851;DHT22;72609;45.768;4.884;2024-01-11T11:10:17;2.60;87.70
82851;DHT22;72609;45.768;4.884;2024-01-11T11:12:45;2.70;87.70
82851;DHT22;72609;45.768;4.884;2024-01-11T11:15:12;2.70;87.00
82851;DHT22;72609;45.768;4.884;2024-01-11T11:17:38;2.60;87.10
82851;DHT22;72609;45.768;4.884;2024-01-11T11:20:09;2.60;87.70
82851;DHT22;72609;45.768;4.884;2024-01-11T11:22:37;2.70;87.80
82851;DHT22;72609;45.768;4.884;2024-01-11T11:25:09;2.70;87.30
82851;DHT22;72609;45.768;4.884;2024-01-11T11:27:36;2.70;87.30
82851;DHT22;72609;45.768;4.884;2024-01-11T11:30:03;2.70;87.40
82851;DHT22;72609;45.768;4.884;2024-01-11T11:32:43;2.70;87.50
82851;DHT22;72609;45.768;4.884;2024-01-11T11:35:09;2.70;87.90
82851;DHT22;72609;45.768;4.884;2024-01-11T11:37:38;2.80;87.20
82851;DHT22;72609;45.768;4.884;2024-01-11T11:40:05;2.80;86.60
82851;DHT22;72609;45.768;4.884;2024-01-11T11:42:33;2.90;88.60
82851;DHT22;72609;45.768;4.884;2024-01-11T11:44:59;2.60;86.80
82851;DHT22;72609;45.768;4.884;2024-01-11T11:47:33;2.50;88.10
82851;DHT22;72609;45.768;4.884;2024-01-11T11:50:09;2.60;88.60
82851;DHT22;72609;45.768;4.884;2024-01-11T11:52:37;2.70;88.00
82851;DHT22;72609;45.768;4.884;2024-01-11T11:55:06;2.70;87.70
82851;DHT22;72609;45.768;4.884;2024-01-11T11:57:33;2.80;88.10
82851;DHT22;72609;45.768;4.884;2024-01-11T11:59:59;2.70;86.80
82851;DHT22;72609;45.768;4.884;2024-01-11T12:02:26;2.60;87.90
82851;DHT22;72609;45.768;4.884;2024-01-11T12:04:53;2.60;87.70
82851;DHT22;72609;45.768;4.884;2024-01-11T12:07:20;2.70;87.70
82851;DHT22;72609;45.768;4.884;2024-01-11T12:09:46;2.60;87.30
82851;DHT22;72609;45.768;4.884;2024-01-11T12:12:13;2.60;87.70
82851;DHT22;72609;45.768;4.884;2024-01-11T12:14:38;2.60;87.80
82851;DHT22;72609;45.768;4.884;2024-01-11T12:17:06;2.70;87.20
82851;DHT22;72609;45.768;4.884;2024-01-11T12:19:31;2.70;86.70
82851;DHT22;72609;45.768;4.884;2024-01-11T12:21:58;2.70;87.10
82851;DHT22;72609;45.768;4.884;2024-01-11T12:24:23;2.70;86.50
82851;DHT22;72609;45.768;4.884;2024-01-11T12:26:49;2.80;87.20
82851;DHT22;72609;45.768;4.884;2024-01-11T12:29:23;2.80;86.00
82851;DHT22;72609;45.768;4.884;2024-01-11T12:31:50;2.80;86.10
82851;DHT22;72609;45.768;4.884;2024-01-11T12:34:15;2.80;86.50
82851;DHT22;72609;45.768;4.884;2024-01-11T12:36:41;2.80;86.20
82851;DHT22;72609;45.768;4.884;2024-01-11T12:39:07;2.80;86.00
82851;DHT22;72609;45.768;4.884;2024-01-11T12:41:34;2.80;86.00
82851;DHT22;72609;45.768;4.884;2024-01-11T12:44:01;2.70;85.90
82851;DHT22;72609;45.768;4.884;2024-01-11T12:46:27;2.60;86.00
82851;DHT22;72609;45.768;4.884;2024-01-11T12:48:52;2.70;86.10
82851;DHT22;72609;45.768;4.884;2024-01-11T12:51:18;2.70;85.60
82851;DHT22;72609;45.768;4.884;2024-01-11T12:53:47;2.70;85.60
82851;DHT22;72609;45.768;4.884;2024-01-11T12:56:16;2.70;85.20
82851;DHT22;72609;45.768;4.884;2024-01-11T12:58:42;2.70;85.90
82851;DHT22;72609;45.768;4.884;2024-01-11T13:01:08;2.70;86.00
82851;DHT22;72609;45.768;4.884;2024-01-11T13:03:35;2.70;86.40
82851;DHT22;72609;45.768;4.884;2024-01-11T13:06:02;2.70;86.20
82851;DHT22;72609;45.768;4.884;2024-01-11T13:08:33;2.70;85.90
82851;DHT22;72609;45.768;4.884;2024-01-11T13:11:01;2.60;86.00
82851;DHT22;72609;45.768;4.884;2024-01-11T13:13:35;2.70;86.20
82851;DHT22;72609;45.768;4.884;2024-01-11T13:16:04;2.70;86.00
82851;DHT22;72609;45.768;4.884;2024-01-11T13:18:36;2.60;86.20
82851;DHT22;72609;45.768;4.884;2024-01-11T13:21:02;2.70;86.70
82851;DHT22;72609;45.768;4.884;2024-01-11T13:23:28;2.70;86.50
82851;DHT22;72609;45.768;4.884;2024-01-11T13:25:53;2.70;85.80
82851;DHT22;72609;45.768;4.884;2024-01-11T13:28:19;2.70;85.60
82851;DHT22;72609;45.768;4.884;2024-01-11T13:30:46;2.60;86.20
82851;DHT22;72609;45.768;4.884;2024-01-11T13:33:12;2.70;86.50
82851;DHT22;72609;45.768;4.884;2024-01-11T13:35:39;2.80;86.70
82851;DHT22;72609;45.768;4.884;2024-01-11T13:38:05;2.80;85.80
82851;DHT22;72609;45.768;4.884;2024-01-11T13:40:31;2.80;85.90
82851;DHT22;72609;45.768;4.884;2024-01-11T13:42:57;2.80;85.30
82851;DHT22;72609;45.768;4.884;2024-01-11T13:45:24;2.80;85.30
82851;DHT22;72609;45.768;4.884;2024-01-11T13:47:50;2.80;86.00
82851;DHT22;72609;45.768;4.884;2024-01-11T13:50:16;2.90;85.40
82851;DHT22;72609;45.768;4.884;2024-01-11T13:52:44;2.90;85.60
82851;DHT22;72609;45.768;4.884;2024-01-11T13:55:10;2.70;85.70
82851;DHT22;72609;45.768;4.884;2024-01-11T13:57:39;2.70;86.00
82851;DHT22;72609;45.768;4.884;2024-01-11T14:00:06;2.80;86.20
82851;DHT22;72609;45.768;4.884;2024-01-11T14:02:32;2.80;85.70
82851;DHT22;72609;45.768;4.884;2024-01-11T14:04:59;2.90;85.70
82851;DHT22;72609;45.768;4.884;2024-01-11T14:07:24;2.90;85.60
82851;DHT22;72609;45.768;4.884;2024-01-11T14:09:51;2.90;85.50
82851;DHT22;72609;45.768;4.884;2024-01-11T14:12:16;2.90;85.30
82851;DHT22;72609;45.768;4.884;2024-01-11T14:14:42;2.90;85.80
82851;DHT22;72609;45.768;4.884;2024-01-11T14:17:08;2.90;85.60
82851;DHT22;72609;45.768;4.884;2024-01-11T14:19:34;2.80;85.70
82851;DHT22;72609;45.768;4.884;2024-01-11T14:22:00;2.80;85.70
82851;DHT22;72609;45.768;4.884;2024-01-11T14:24:26;2.80;85.40
82851;DHT22;72609;45.768;4.884;2024-01-11T14:26:51;2.90;85.60
82851;DHT22;72609;45.768;4.884;2024-01-11T14:29:17;2.90;85.80
82851;DHT22;72609;45.768;4.884;2024-01-11T14:31:43;3.00;86.10
82851;DHT22;72609;45.768;4.884;2024-01-11T14:34:09;2.90;85.90
82851;DHT22;72609;45.768;4.884;2024-01-11T14:36:36;3.00;86.10
82851;DHT22;72609;45.768;4.884;2024-01-11T14:39:02;2.90;85.50
82851;DHT22;72609;45.768;4.884;2024-01-11T14:41:30;2.90;85.10
82851;DHT22;72609;45.768;4.884;2024-01-11T14:43:56;2.70;85.30
82851;DHT22;72609;45.768;4.884;2024-01-11T14:46:22;2.60;85.70
82851;DHT22;72609;45.768;4.884;2024-01-11T14:48:47;2.50;85.80
82851;DHT22;72609;45.768;4.884;2024-01-11T14:51:14;2.60;86.60
82851;DHT22;72609;45.768;4.884;2024-01-11T14:53:39;2.60;86.60
82851;DHT22;72609;45.768;4.884;2024-01-11T14:56:05;2.70;86.20
82851;DHT22;72609;45.768;4.884;2024-01-11T14:58:31;2.70;86.20
82851;DHT22;72609;45.768;4.884;2024-01-11T15:00:57;2.70;85.90
82851;DHT22;72609;45.768;4.884;2024-01-11T15:03:23;2.70;85.50
82851;DHT22;72609;45.768;4.884;2024-01-11T15:05:50;2.60;85.30
82851;DHT22;72609;45.768;4.884;2024-01-11T15:08:17;2.60;85.70
82851;DHT22;72609;45.768;4.884;2024-01-11T15:10:44;2.60;85.60
82851;DHT22;72609;45.768;4.884;2024-01-11T15:13:10;2.50;85.60
82851;DHT22;72609;45.768;4.884;2024-01-11T15:15:36;2.50;85.50
82851;DHT22;72609;45.768;4.884;2024-01-11T15:18:04;2.50;86.00
82851;DHT22;72609;45.768;4.884;2024-01-11T15:20:29;2.50;86.20
82851;DHT22;72609;45.768;4.884;2024-01-11T15:22:55;2.50;86.40
82851;DHT22;72609;45.768;4.884;2024-01-11T15:25:23;2.60;85.70
82851;DHT22;72609;45.768;4.884;2024-01-11T15:27:49;2.60;85.70
82851;DHT22;72609;45.768;4.884;2024-01-11T15:30:15;2.60;85.70
82851;DHT22;72609;45.768;4.884;2024-01-11T15:32:42;2.50;86.00
82851;DHT22;72609;45.768;4.884;2024-01-11T15:35:08;2.50;86.40
82851;DHT22;72609;45.768;4.884;2024-01-11T15:37:34;2.50;86.30
82851;DHT22;72609;45.768;4.884;2024-01-11T15:40:01;2.50;86.30